sensor_id;sensor_type;location;lat;lon;timestamp;P1;durP1;ratioP1;P2;durP2;ratioP2
38567;SDS011;24338;48.280;10.970;2023-01-28T00:01:37;28.90;;;16.58;;
38567;SDS011;24338;48.280;10.970;2023-01-28T00:04:04;30.50;;;17.00;;
38567;SDS011;24338;48.280;10.970;2023-01-28T00:06:31;27.73;;;17.70;;
38567;SDS011;24338;48.280;10.970;2023-01-28T00:08:58;30.33;;;18.30;;
38567;SDS011;24338;48.280;10.970;2023-01-28T00:11:25;30.05;;;16.20;;
38567;SDS011;24338;48.280;10.970;2023-01-28T00:13:52;28.10;;;16.50;;
38567;SDS011;24338;48.280;10.970;2023-01-28T00:16:19;31.33;;;16.63;;
38567;SDS011;24338;48.280;10.970;2023-01-28T00:18:52;30.45;;;15.27;;
38567;SDS011;24338;48.280;10.970;2023-01-28T00:21:19;33.05;;;17.98;;
38567;SDS011;24338;48.280;10.970;2023-01-28T00:23:51;27.27;;;15.13;;
38567;SDS011;24338;48.280;10.970;2023-01-28T00:26:20;29.73;;;16.55;;
38567;SDS011;24338;48.280;10.970;2023-01-28T00:28:48;26.30;;;16.90;;
38567;SDS011;24338;48.280;10.970;2023-01-28T00:33:44;25.27;;;15.38;;
38567;SDS011;24338;48.280;10.970;2023-01-28T00:36:12;24.55;;;14.35;;
38567;SDS011;24338;48.280;10.970;2023-01-28T00:38:40;28.42;;;14.77;;
38567;SDS011;24338;48.280;10.970;2023-01-28T00:41:11;23.48;;;15.30;;
38567;SDS011;24338;48.280;10.970;2023-01-28T00:43:41;26.27;;;14.80;;
38567;SDS011;24338;48.280;10.970;2023-01-28T00:46:09;26.83;;;15.18;;
38567;SDS011;24338;48.280;10.970;2023-01-28T00:48:37;25.98;;;15.07;;
38567;SDS011;24338;48.280;10.970;2023-01-28T00:51:05;26.13;;;15.40;;
38567;SDS011;24338;48.280;10.970;2023-01-28T00:53:33;26.85;;;16.08;;
38567;SDS011;24338;48.280;10.970;2023-01-28T00:56:01;26.17;;;14.27;;
38567;SDS011;24338;48.280;10.970;2023-01-28T00:58:32;25.20;;;15.40;;
38567;SDS011;24338;48.280;10.970;2023-01-28T01:01:10;25.98;;;14.57;;
38567;SDS011;24338;48.280;10.970;2023-01-28T01:03:37;27.25;;;15.38;;
38567;SDS011;24338;48.280;10.970;2023-01-28T01:06:04;24.42;;;14.50;;
38567;SDS011;24338;48.280;10.970;2023-01-28T01:08:32;26.00;;;14.38;;
38567;SDS011;24338;48.280;10.970;2023-01-28T01:11:05;26.55;;;15.32;;
38567;SDS011;24338;48.280;10.970;2023-01-28T01:13:32;30.13;;;16.27;;
38567;SDS011;24338;48.280;10.970;2023-01-28T01:16:06;29.67;;;14.75;;
38567;SDS011;24338;48.280;10.970;2023-01-28T01:18:38;27.38;;;15.25;;
38567;SDS011;24338;48.280;10.970;2023-01-28T01:21:09;25.73;;;14.48;;
38567;SDS011;24338;48.280;10.970;2023-01-28T01:23:38;29.60;;;16.67;;
38567;SDS011;24338;48.280;10.970;2023-01-28T01:26:07;30.77;;;15.77;;
38567;SDS011;24338;48.280;10.970;2023-01-28T01:28:34;28.02;;;15.27;;
38567;SDS011;24338;48.280;10.970;2023-01-28T01:31:03;27.42;;;15.48;;
38567;SDS011;24338;48.280;10.970;2023-01-28T01:33:41;32.08;;;17.98;;
38567;SDS011;24338;48.280;10.970;2023-01-28T01:36:10;30.40;;;16.95;;
38567;SDS011;24338;48.280;10.970;2023-01-28T01:38:38;28.08;;;17.42;;
38567;SDS011;24338;48.280;10.970;2023-01-28T01:41:06;32.88;;;16.80;;
38567;SDS011;24338;48.280;10.970;2023-01-28T01:46:22;31.45;;;16.38;;
38567;SDS011;24338;48.280;10.970;2023-01-28T01:49:00;29.40;;;16.70;;
38567;SDS011;24338;48.280;10.970;2023-01-28T01:51:59;26.20;;;14.65;;
38567;SDS011;24338;48.280;10.970;2023-01-28T01:54:32;28.40;;;16.50;;
38567;SDS011;24338;48.280;10.970;2023-01-28T01:57:00;31.30;;;16.92;;
38567;SDS011;24338;48.280;10.970;2023-01-28T01:59:29;27.85;;;16.48;;
38567;SDS011;24338;48.280;10.970;2023-01-28T02:02:02;25.48;;;15.00;;
38567;SDS011;24338;48.280;10.970;2023-01-28T02:04:34;31.10;;;17.02;;
38567;SDS011;24338;48.280;10.970;2023-01-28T02:07:08;29.85;;;17.48;;
38567;SDS011;24338;48.280;10.970;2023-01-28T02:09:37;28.25;;;15.85;;
38567;SDS011;24338;48.280;10.970;2023-01-28T02:14:38;30.48;;;16.98;;
38567;SDS011;24338;48.280;10.970;2023-01-28T02:17:12;30.33;;;16.85;;
38567;SDS011;24338;48.280;10.970;2023-01-28T02:19:41;26.90;;;14.95;;
38567;SDS011;24338;48.280;10.970;2023-01-28T02:22:33;30.50;;;15.63;;
38567;SDS011;24338;48.280;10.970;2023-01-28T02:30:47;30.85;;;15.85;;
38567;SDS011;24338;48.280;10.970;2023-01-28T02:34:03;29.08;;;15.95;;
38567;SDS011;24338;48.280;10.970;2023-01-28T02:38:41;32.33;;;17.05;;
38567;SDS011;24338;48.280;10.970;2023-01-28T02:41:15;27.95;;;16.65;;
38567;SDS011;24338;48.280;10.970;2023-01-28T02:43:55;31.60;;;16.55;;
38567;SDS011;24338;48.280;10.970;2023-01-28T02:49:11;30.45;;;16.17;;
38567;SDS011;24338;48.280;10.970;2023-01-28T02:51:46;29.58;;;15.50;;
38567;SDS011;24338;48.280;10.970;2023-01-28T02:54:21;30.08;;;16.77;;
38567;SDS011;24338;48.280;10.970;2023-01-28T02:57:03;30.17;;;16.67;;
38567;SDS011;24338;48.280;10.970;2023-01-28T03:02:32;28.88;;;15.65;;
38567;SDS011;24338;48.280;10.970;2023-01-28T03:05:06;34.13;;;17.85;;
38567;SDS011;24338;48.280;10.970;2023-01-28T03:07:34;28.70;;;15.45;;
38567;SDS011;24338;48.280;10.970;2023-01-28T03:10:04;30.05;;;15.35;;
38567;SDS011;24338;48.280;10.970;2023-01-28T03:12:36;27.08;;;15.68;;
38567;SDS011;24338;48.280;10.970;2023-01-28T03:15:29;32.42;;;16.42;;
38567;SDS011;24338;48.280;10.970;2023-01-28T03:18:20;30.73;;;17.05;;
38567;SDS011;24338;48.280;10.970;2023-01-28T03:21:14;31.02;;;17.30;;
38567;SDS011;24338;48.280;10.970;2023-01-28T03:24:14;29.38;;;16.13;;
38567;SDS011;24338;48.280;10.970;2023-01-28T03:27:17;29.33;;;15.85;;
38567;SDS011;24338;48.280;10.970;2023-01-28T03:30:09;30.58;;;17.20;;
38567;SDS011;24338;48.280;10.970;2023-01-28T03:33:07;34.25;;;18.10;;
38567;SDS011;24338;48.280;10.970;2023-01-28T03:35:54;28.70;;;15.82;;
38567;SDS011;24338;48.280;10.970;2023-01-28T03:38:40;28.75;;;15.13;;
38567;SDS011;24338;48.280;10.970;2023-01-28T03:41:09;31.15;;;16.40;;
38567;SDS011;24338;48.280;10.970;2023-01-28T03:43:36;28.83;;;16.27;;
38567;SDS011;24338;48.280;10.970;2023-01-28T03:46:03;27.40;;;14.48;;
38567;SDS011;24338;48.280;10.970;2023-01-28T03:48:31;32.05;;;16.00;;
38567;SDS011;24338;48.280;10.970;2023-01-28T03:50:58;28.95;;;15.95;;
38567;SDS011;24338;48.280;10.970;2023-01-28T03:53:28;32.33;;;19.42;;
38567;SDS011;24338;48.280;10.970;2023-01-28T03:55:55;32.40;;;16.75;;
38567;SDS011;24338;48.280;10.970;2023-01-28T03:58:22;33.03;;;15.45;;
38567;SDS011;24338;48.280;10.970;2023-01-28T04:01:12;27.35;;;14.95;;
38567;SDS011;24338;48.280;10.970;2023-01-28T04:03:39;28.13;;;16.13;;
38567;SDS011;24338;48.280;10.970;2023-01-28T04:06:06;31.02;;;16.08;;
38567;SDS011;24338;48.280;10.970;2023-01-28T04:08:34;33.67;;;17.10;;
38567;SDS011;24338;48.280;10.970;2023-01-28T04:11:01;28.65;;;16.50;;
38567;SDS011;24338;48.280;10.970;2023-01-28T04:13:45;29.80;;;16.77;;
38567;SDS011;24338;48.280;10.970;2023-01-28T04:16:14;27.05;;;15.00;;
38567;SDS011;24338;48.280;10.970;2023-01-28T04:18:42;28.60;;;13.95;;
38567;SDS011;24338;48.280;10.970;2023-01-28T04:21:10;29.77;;;15.70;;
38567;SDS011;24338;48.280;10.970;2023-01-28T04:23:37;33.00;;;16.40;;
38567;SDS011;24338;48.280;10.970;2023-01-28T04:26:04;31.42;;;15.68;;
38567;SDS011;24338;48.280;10.970;2023-01-28T04:28:31;29.98;;;15.75;;
38567;SDS011;24338;48.280;10.970;2023-01-28T04:30:58;32.22;;;16.55;;
38567;SDS011;24338;48.280;10.970;2023-01-28T04:33:25;28.58;;;14.55;;
38567;SDS011;24338;48.280;10.970;2023-01-28T04:35:51;32.75;;;17.70;;
38567;SDS011;24338;48.280;10.970;2023-01-28T04:38:18;33.25;;;16.58;;
38567;SDS011;24338;48.280;10.970;2023-01-28T04:40:48;27.00;;;15.50;;
38567;SDS011;24338;48.280;10.970;2023-01-28T04:43:15;29.33;;;16.48;;
38567;SDS011;24338;48.280;10.970;2023-01-28T04:45:43;32.83;;;17.38;;
38567;SDS011;24338;48.280;10.970;2023-01-28T04:48:10;29.30;;;15.10;;
38567;SDS011;24338;48.280;10.970;2023-01-28T04:50:36;28.70;;;16.27;;
38567;SDS011;24338;48.280;10.970;2023-01-28T04:53:03;29.95;;;16.33;;
38567;SDS011;24338;48.280;10.970;2023-01-28T04:55:30;32.30;;;17.02;;
38567;SDS011;24338;48.280;10.970;2023-01-28T04:57:57;30.75;;;14.93;;
38567;SDS011;24338;48.280;10.970;2023-01-28T05:00:23;29.95;;;16.02;;
38567;SDS011;24338;48.280;10.970;2023-01-28T05:02:50;29.02;;;15.35;;
38567;SDS011;24338;48.280;10.970;2023-01-28T05:05:17;27.30;;;14.55;;
38567;SDS011;24338;48.280;10.970;2023-01-28T05:07:49;26.73;;;15.55;;
38567;SDS011;24338;48.280;10.970;2023-01-28T05:10:17;26.52;;;16.25;;
38567;SDS011;24338;48.280;10.970;2023-01-28T05:12:45;29.67;;;15.20;;
38567;SDS011;24338;48.280;10.970;2023-01-28T05:15:13;28.40;;;15.65;;
38567;SDS011;24338;48.280;10.970;2023-01-28T05:17:42;29.67;;;15.57;;
38567;SDS011;24338;48.280;10.970;2023-01-28T05:20:10;26.08;;;14.60;;
38567;SDS011;24338;48.280;10.970;2023-01-28T05:22:38;28.45;;;15.35;;
38567;SDS011;24338;48.280;10.970;2023-01-28T05:25:06;27.92;;;14.85;;
38567;SDS011;24338;48.280;10.970;2023-01-28T05:27:33;22.35;;;12.82;;
38567;SDS011;24338;48.280;10.970;2023-01-28T05:30:00;27.73;;;15.77;;
38567;SDS011;24338;48.280;10.970;2023-01-28T05:32:26;30.35;;;16.38;;
38567;SDS011;24338;48.280;10.970;2023-01-28T05:34:53;26.27;;;14.82;;
38567;SDS011;24338;48.280;10.970;2023-01-28T05:37:20;23.73;;;13.82;;
38567;SDS011;24338;48.280;10.970;2023-01-28T05:39:47;27.40;;;15.65;;
38567;SDS011;24338;48.280;10.970;2023-01-28T05:42:14;28.85;;;17.27;;
38567;SDS011;24338;48.280;10.970;2023-01-28T05:44:40;24.98;;;14.65;;
38567;SDS011;24338;48.280;10.970;2023-01-28T05:47:07;25.60;;;14.95;;
38567;SDS011;24338;48.280;10.970;2023-01-28T05:49:34;26.20;;;13.73;;
38567;SDS011;24338;48.280;10.970;2023-01-28T05:52:01;28.13;;;15.45;;
38567;SDS011;24338;48.280;10.970;2023-01-28T05:54:28;27.60;;;14.88;;
38567;SDS011;24338;48.280;10.970;2023-01-28T05:56:54;25.30;;;14.18;;
38567;SDS011;24338;48.280;10.970;2023-01-28T05:59:21;26.98;;;15.45;;
38567;SDS011;24338;48.280;10.970;2023-01-28T06:01:48;30.60;;;15.55;;
38567;SDS011;24338;48.280;10.970;2023-01-28T06:04:14;28.63;;;15.63;;
38567;SDS011;24338;48.280;10.970;2023-01-28T06:06:44;25.13;;;14.73;;
38567;SDS011;24338;48.280;10.970;2023-01-28T06:09:11;25.42;;;13.27;;
38567;SDS011;24338;48.280;10.970;2023-01-28T06:11:38;27.90;;;16.67;;
38567;SDS011;24338;48.280;10.970;2023-01-28T06:14:05;25.23;;;13.95;;
38567;SDS011;24338;48.280;10.970;2023-01-28T06:16:31;27.98;;;15.18;;
38567;SDS011;24338;48.280;10.970;2023-01-28T06:18:58;26.77;;;14.35;;
38567;SDS011;24338;48.280;10.970;2023-01-28T06:21:25;24.88;;;14.40;;
38567;SDS011;24338;48.280;10.970;2023-01-28T06:23:55;26.08;;;15.25;;
38567;SDS011;24338;48.280;10.970;2023-01-28T06:26:22;25.23;;;14.27;;
38567;SDS011;24338;48.280;10.970;2023-01-28T06:28:48;29.80;;;15.60;;
38567;SDS011;24338;48.280;10.970;2023-01-28T06:31:15;24.42;;;14.23;;
38567;SDS011;24338;48.280;10.970;2023-01-28T06:33:42;26.90;;;14.23;;
38567;SDS011;24338;48.280;10.970;2023-01-28T06:36:09;25.55;;;14.88;;
38567;SDS011;24338;48.280;10.970;2023-01-28T06:38:36;28.25;;;15.05;;
38567;SDS011;24338;48.280;10.970;2023-01-28T06:41:03;24.33;;;14.10;;
38567;SDS011;24338;48.280;10.970;2023-01-28T06:43:30;26.20;;;14.88;;
38567;SDS011;24338;48.280;10.970;2023-01-28T06:45:57;27.60;;;16.02;;
38567;SDS011;24338;48.280;10.970;2023-01-28T06:48:24;24.98;;;16.33;;
38567;SDS011;24338;48.280;10.970;2023-01-28T06:50:52;28.83;;;15.27;;
38567;SDS011;24338;48.280;10.970;2023-01-28T06:53:19;27.35;;;15.40;;
38567;SDS011;24338;48.280;10.970;2023-01-28T06:55:47;24.23;;;15.23;;
38567;SDS011;24338;48.280;10.970;2023-01-28T06:58:14;26.23;;;14.45;;
38567;SDS011;24338;48.280;10.970;2023-01-28T07:00:41;28.67;;;15.23;;
38567;SDS011;24338;48.280;10.970;2023-01-28T07:03:07;29.75;;;14.95;;
38567;SDS011;24338;48.280;10.970;2023-01-28T07:05:42;27.08;;;14.40;;
38567;SDS011;24338;48.280;10.970;2023-01-28T07:08:09;25.02;;;14.93;;
38567;SDS011;24338;48.280;10.970;2023-01-28T07:10:35;24.35;;;14.80;;
38567;SDS011;24338;48.280;10.970;2023-01-28T07:13:02;27.35;;;15.57;;
38567;SDS011;24338;48.280;10.970;2023-01-28T07:15:29;24.65;;;14.85;;
38567;SDS011;24338;48.280;10.970;2023-01-28T07:17:56;25.45;;;15.90;;
38567;SDS011;24338;48.280;10.970;2023-01-28T07:20:24;24.13;;;13.90;;
38567;SDS011;24338;48.280;10.970;2023-01-28T07:22:54;25.20;;;15.00;;
38567;SDS011;24338;48.280;10.970;2023-01-28T07:25:21;27.17;;;14.70;;
38567;SDS011;24338;48.280;10.970;2023-01-28T07:27:48;27.02;;;14.52;;
38567;SDS011;24338;48.280;10.970;2023-01-28T07:30:16;28.40;;;14.70;;
38567;SDS011;24338;48.280;10.970;2023-01-28T07:32:44;25.58;;;14.35;;
38567;SDS011;24338;48.280;10.970;2023-01-28T07:35:11;25.23;;;13.70;;
38567;SDS011;24338;48.280;10.970;2023-01-28T07:37:38;27.70;;;13.98;;
38567;SDS011;24338;48.280;10.970;2023-01-28T07:40:05;25.17;;;14.32;;
38567;SDS011;24338;48.280;10.970;2023-01-28T07:42:33;25.67;;;14.00;;
38567;SDS011;24338;48.280;10.970;2023-01-28T07:45:00;27.75;;;15.15;;
38567;SDS011;24338;48.280;10.970;2023-01-28T07:47:27;27.52;;;14.82;;
38567;SDS011;24338;48.280;10.970;2023-01-28T07:49:53;26.20;;;14.90;;
38567;SDS011;24338;48.280;10.970;2023-01-28T07:52:20;25.35;;;13.20;;
38567;SDS011;24338;48.280;10.970;2023-01-28T07:54:47;23.23;;;14.30;;
38567;SDS011;24338;48.280;10.970;2023-01-28T07:57:14;26.75;;;14.02;;
38567;SDS011;24338;48.280;10.970;2023-01-28T07:59:48;28.77;;;16.85;;
38567;SDS011;24338;48.280;10.970;2023-01-28T08:02:18;28.25;;;16.23;;
38567;SDS011;24338;48.280;10.970;2023-01-28T08:04:45;26.23;;;14.13;;
38567;SDS011;24338;48.280;10.970;2023-01-28T08:07:12;26.23;;;14.90;;
38567;SDS011;24338;48.280;10.970;2023-01-28T08:09:39;20.92;;;12.50;;
38567;SDS011;24338;48.280;10.970;2023-01-28T08:12:06;24.13;;;14.23;;
38567;SDS011;24338;48.280;10.970;2023-01-28T08:14:33;25.15;;;13.68;;
38567;SDS011;24338;48.280;10.970;2023-01-28T08:17:00;25.15;;;15.63;;
38567;SDS011;24338;48.280;10.970;2023-01-28T08:19:27;27.23;;;15.70;;
38567;SDS011;24338;48.280;10.970;2023-01-28T08:21:53;24.85;;;14.75;;
38567;SDS011;24338;48.280;10.970;2023-01-28T08:24:20;25.58;;;14.63;;
38567;SDS011;24338;48.280;10.970;2023-01-28T08:26:47;24.45;;;14.10;;
38567;SDS011;24338;48.280;10.970;2023-01-28T08:29:14;25.10;;;14.40;;
38567;SDS011;24338;48.280;10.970;2023-01-28T08:31:41;23.83;;;14.43;;
38567;SDS011;24338;48.280;10.970;2023-01-28T08:34:08;23.73;;;13.40;;
38567;SDS011;24338;48.280;10.970;2023-01-28T08:36:35;26.05;;;14.82;;
38567;SDS011;24338;48.280;10.970;2023-01-28T08:39:02;22.85;;;14.13;;
38567;SDS011;24338;48.280;10.970;2023-01-28T08:41:29;21.60;;;13.68;;
38567;SDS011;24338;48.280;10.970;2023-01-28T08:43:56;23.70;;;13.15;;
38567;SDS011;24338;48.280;10.970;2023-01-28T08:46:23;24.70;;;14.30;;
38567;SDS011;24338;48.280;10.970;2023-01-28T08:48:50;23.15;;;13.10;;
38567;SDS011;24338;48.280;10.970;2023-01-28T08:51:17;23.80;;;12.85;;
38567;SDS011;24338;48.280;10.970;2023-01-28T08:53:43;22.10;;;12.00;;
38567;SDS011;24338;48.280;10.970;2023-01-28T08:56:10;23.60;;;13.27;;
38567;SDS011;24338;48.280;10.970;2023-01-28T08:58:37;23.00;;;14.02;;
38567;SDS011;24338;48.280;10.970;2023-01-28T09:01:04;25.58;;;13.32;;
38567;SDS011;24338;48.280;10.970;2023-01-28T09:03:32;26.00;;;13.68;;
38567;SDS011;24338;48.280;10.970;2023-01-28T09:06:02;25.98;;;13.27;;
38567;SDS011;24338;48.280;10.970;2023-01-28T09:08:30;24.75;;;12.55;;
38567;SDS011;24338;48.280;10.970;2023-01-28T09:10:57;23.27;;;13.10;;
38567;SDS011;24338;48.280;10.970;2023-01-28T09:13:25;22.67;;;12.82;;
38567;SDS011;24338;48.280;10.970;2023-01-28T09:15:52;19.88;;;12.75;;
38567;SDS011;24338;48.280;10.970;2023-01-28T09:18:19;20.13;;;13.07;;
38567;SDS011;24338;48.280;10.970;2023-01-28T09:20:46;21.20;;;11.35;;
38567;SDS011;24338;48.280;10.970;2023-01-28T09:23:13;21.85;;;11.65;;
38567;SDS011;24338;48.280;10.970;2023-01-28T09:25:40;21.00;;;12.00;;
38567;SDS011;24338;48.280;10.970;2023-01-28T09:28:07;21.98;;;12.88;;
38567;SDS011;24338;48.280;10.970;2023-01-28T09:30:34;23.10;;;12.20;;
38567;SDS011;24338;48.280;10.970;2023-01-28T09:33:03;25.50;;;12.98;;
38567;SDS011;24338;48.280;10.970;2023-01-28T09:35:31;19.27;;;11.45;;
38567;SDS011;24338;48.280;10.970;2023-01-28T09:37:59;26.25;;;14.13;;
38567;SDS011;24338;48.280;10.970;2023-01-28T09:43:05;21.45;;;13.30;;
38567;SDS011;24338;48.280;10.970;2023-01-28T09:45:51;22.83;;;13.25;;
38567;SDS011;24338;48.280;10.970;2023-01-28T09:48:22;26.17;;;13.63;;
38567;SDS011;24338;48.280;10.970;2023-01-28T09:50:55;22.25;;;13.32;;
38567;SDS011;24338;48.280;10.970;2023-01-28T09:55:52;19.90;;;11.85;;
38567;SDS011;24338;48.280;10.970;2023-01-28T09:58:31;19.40;;;11.38;;
38567;SDS011;24338;48.280;10.970;2023-01-28T10:14:22;21.40;;;12.85;;
38567;SDS011;24338;48.280;10.970;2023-01-28T10:19:56;18.67;;;11.48;;
38567;SDS011;24338;48.280;10.970;2023-01-28T10:22:34;19.98;;;11.90;;
38567;SDS011;24338;48.280;10.970;2023-01-28T10:25:18;18.05;;;11.15;;
38567;SDS011;24338;48.280;10.970;2023-01-28T10:27:50;21.60;;;11.32;;
38567;SDS011;24338;48.280;10.970;2023-01-28T10:30:18;19.25;;;11.70;;
38567;SDS011;24338;48.280;10.970;2023-01-28T10:35:18;21.10;;;13.05;;
38567;SDS011;24338;48.280;10.970;2023-01-28T10:37:45;17.98;;;11.05;;
38567;SDS011;24338;48.280;10.970;2023-01-28T10:40:13;20.40;;;12.10;;
38567;SDS011;24338;48.280;10.970;2023-01-28T10:42:42;18.63;;;12.82;;
38567;SDS011;24338;48.280;10.970;2023-01-28T10:47:44;22.83;;;13.93;;
38567;SDS011;24338;48.280;10.970;2023-01-28T10:50:26;23.52;;;13.05;;
38567;SDS011;24338;48.280;10.970;2023-01-28T10:52:55;23.80;;;12.93;;
38567;SDS011;24338;48.280;10.970;2023-01-28T10:55:28;20.83;;;12.52;;
38567;SDS011;24338;48.280;10.970;2023-01-28T10:58:18;27.48;;;14.23;;
38567;SDS011;24338;48.280;10.970;2023-01-28T11:00:51;21.83;;;13.05;;
38567;SDS011;24338;48.280;10.970;2023-01-28T11:03:26;20.40;;;11.82;;
38567;SDS011;24338;48.280;10.970;2023-01-28T11:05:56;20.42;;;12.23;;
38567;SDS011;24338;48.280;10.970;2023-01-28T11:08:25;18.95;;;12.27;;
38567;SDS011;24338;48.280;10.970;2023-01-28T11:10:54;22.35;;;13.13;;
38567;SDS011;24338;48.280;10.970;2023-01-28T11:13:26;24.48;;;13.57;;
38567;SDS011;24338;48.280;10.970;2023-01-28T11:16:01;23.63;;;12.35;;
38567;SDS011;24338;48.280;10.970;2023-01-28T11:18:45;20.33;;;12.13;;
38567;SDS011;24338;48.280;10.970;2023-01-28T11:21:23;21.45;;;12.95;;
38567;SDS011;24338;48.280;10.970;2023-01-28T11:23:53;21.92;;;12.75;;
38567;SDS011;24338;48.280;10.970;2023-01-28T11:28:53;19.63;;;9.95;;
38567;SDS011;24338;48.280;10.970;2023-01-28T11:31:20;19.73;;;11.80;;
38567;SDS011;24338;48.280;10.970;2023-01-28T11:33:50;27.38;;;23.10;;
38567;SDS011;24338;48.280;10.970;2023-01-28T11:36:23;19.92;;;12.80;;
38567;SDS011;24338;48.280;10.970;2023-01-28T11:38:56;20.60;;;11.52;;
38567;SDS011;24338;48.280;10.970;2023-01-28T11:41:26;20.77;;;11.95;;
38567;SDS011;24338;48.280;10.970;2023-01-28T11:43:55;23.23;;;13.80;;
38567;SDS011;24338;48.280;10.970;2023-01-28T11:46:31;24.05;;;14.23;;
38567;SDS011;24338;48.280;10.970;2023-01-28T11:52:01;20.95;;;14.23;;
38567;SDS011;24338;48.280;10.970;2023-01-28T12:06:23;18.50;;;10.93;;
38567;SDS011;24338;48.280;10.970;2023-01-28T12:15:07;19.23;;;11.15;;
38567;SDS011;24338;48.280;10.970;2023-01-28T12:26:48;19.40;;;11.13;;
38567;SDS011;24338;48.280;10.970;2023-01-28T12:29:47;22.45;;;13.05;;
38567;SDS011;24338;48.280;10.970;2023-01-28T12:45:32;20.45;;;12.50;;
38567;SDS011;24338;48.280;10.970;2023-01-28T12:48:17;22.55;;;11.50;;
38567;SDS011;24338;48.280;10.970;2023-01-28T12:50:54;19.02;;;11.70;;
38567;SDS011;24338;48.280;10.970;2023-01-28T12:53:45;22.92;;;13.43;;
38567;SDS011;24338;48.280;10.970;2023-01-28T13:01:23;19.63;;;12.05;;
38567;SDS011;24338;48.280;10.970;2023-01-28T13:04:02;22.48;;;12.57;;
38567;SDS011;24338;48.280;10.970;2023-01-28T13:09:18;22.25;;;12.95;;
38567;SDS011;24338;48.280;10.970;2023-01-28T13:11:48;22.15;;;12.40;;
38567;SDS011;24338;48.280;10.970;2023-01-28T13:14:17;22.25;;;11.60;;
38567;SDS011;24338;48.280;10.970;2023-01-28T13:16:47;21.88;;;12.48;;
38567;SDS011;24338;48.280;10.970;2023-01-28T13:21:44;19.42;;;12.27;;
38567;SDS011;24338;48.280;10.970;2023-01-28T13:26:42;16.77;;;11.23;;
38567;SDS011;24338;48.280;10.970;2023-01-28T13:31:43;21.20;;;12.23;;
38567;SDS011;24338;48.280;10.970;2023-01-28T13:37:18;19.13;;;11.82;;
38567;SDS011;24338;48.280;10.970;2023-01-28T13:40:00;19.65;;;10.45;;
38567;SDS011;24338;48.280;10.970;2023-01-28T13:42:28;18.17;;;11.73;;
38567;SDS011;24338;48.280;10.970;2023-01-28T13:45:11;15.27;;;9.52;;
38567;SDS011;24338;48.280;10.970;2023-01-28T13:47:43;17.60;;;9.48;;
38567;SDS011;24338;48.280;10.970;2023-01-28T13:50:14;16.17;;;8.80;;
38567;SDS011;24338;48.280;10.970;2023-01-28T13:55:36;18.02;;;9.52;;
38567;SDS011;24338;48.280;10.970;2023-01-28T14:01:28;17.80;;;9.63;;
38567;SDS011;24338;48.280;10.970;2023-01-28T14:15:36;15.20;;;9.65;;
38567;SDS011;24338;48.280;10.970;2023-01-28T14:18:26;17.00;;;8.95;;
38567;SDS011;24338;48.280;10.970;2023-01-28T14:21:02;15.73;;;9.15;;
38567;SDS011;24338;48.280;10.970;2023-01-28T14:23:38;16.90;;;9.77;;
38567;SDS011;24338;48.280;10.970;2023-01-28T14:27:14;17.40;;;10.02;;
38567;SDS011;24338;48.280;10.970;2023-01-28T14:31:54;18.05;;;10.20;;
38567;SDS011;24338;48.280;10.970;2023-01-28T14:36:55;16.05;;;10.00;;
38567;SDS011;24338;48.280;10.970;2023-01-28T14:39:27;19.60;;;10.18;;
38567;SDS011;24338;48.280;10.970;2023-01-28T14:41:57;17.88;;;10.98;;
38567;SDS011;24338;48.280;10.970;2023-01-28T14:58:04;16.95;;;9.45;;
38567;SDS011;24338;48.280;10.970;2023-01-28T15:00:37;17.13;;;9.73;;
38567;SDS011;24338;48.280;10.970;2023-01-28T15:03:22;14.32;;;9.65;;
38567;SDS011;24338;48.280;10.970;2023-01-28T15:08:52;18.90;;;10.23;;
38567;SDS011;24338;48.280;10.970;2023-01-28T15:11:20;21.10;;;11.50;;
38567;SDS011;24338;48.280;10.970;2023-01-28T15:13:51;17.20;;;11.27;;
38567;SDS011;24338;48.280;10.970;2023-01-28T15:16:27;19.10;;;11.38;;
38567;SDS011;24338;48.280;10.970;2023-01-28T15:18:58;23.10;;;11.63;;
38567;SDS011;24338;48.280;10.970;2023-01-28T15:21:27;19.42;;;11.55;;
38567;SDS011;24338;48.280;10.970;2023-01-28T15:23:55;21.35;;;10.80;;
38567;SDS011;24338;48.280;10.970;2023-01-28T15:26:25;19.45;;;11.20;;
38567;SDS011;24338;48.280;10.970;2023-01-28T15:28:54;20.83;;;12.43;;
38567;SDS011;24338;48.280;10.970;2023-01-28T15:31:23;18.55;;;11.27;;
38567;SDS011;24338;48.280;10.970;2023-01-28T15:34:02;21.17;;;13.38;;
38567;SDS011;24338;48.280;10.970;2023-01-28T15:36:38;20.05;;;12.88;;
38567;SDS011;24338;48.280;10.970;2023-01-28T15:39:11;22.05;;;12.80;;
38567;SDS011;24338;48.280;10.970;2023-01-28T15:41:40;23.42;;;12.50;;
38567;SDS011;24338;48.280;10.970;2023-01-28T15:44:16;23.02;;;12.40;;
38567;SDS011;24338;48.280;10.970;2023-01-28T15:46:47;25.08;;;15.13;;
38567;SDS011;24338;48.280;10.970;2023-01-28T15:49:14;28.75;;;16.70;;
38567;SDS011;24338;48.280;10.970;2023-01-28T15:51:46;24.75;;;14.95;;
38567;SDS011;24338;48.280;10.970;2023-01-28T15:54:17;25.42;;;14.60;;
38567;SDS011;24338;48.280;10.970;2023-01-28T15:56:44;22.52;;;13.45;;
38567;SDS011;24338;48.280;10.970;2023-01-28T15:59:16;21.23;;;13.63;;
38567;SDS011;24338;48.280;10.970;2023-01-28T16:01:43;26.40;;;15.40;;
38567;SDS011;24338;48.280;10.970;2023-01-28T16:04:23;26.20;;;14.82;;
38567;SDS011;24338;48.280;10.970;2023-01-28T16:06:52;20.20;;;12.10;;
38567;SDS011;24338;48.280;10.970;2023-01-28T16:09:22;20.23;;;13.63;;
38567;SDS011;24338;48.280;10.970;2023-01-28T16:12:02;26.80;;;16.35;;
38567;SDS011;24338;48.280;10.970;2023-01-28T16:17:09;25.60;;;15.48;;
38567;SDS011;24338;48.280;10.970;2023-01-28T16:19:42;26.15;;;16.48;;
38567;SDS011;24338;48.280;10.970;2023-01-28T16:22:17;25.33;;;15.25;;
38567;SDS011;24338;48.280;10.970;2023-01-28T16:24:52;25.80;;;14.80;;
38567;SDS011;24338;48.280;10.970;2023-01-28T16:27:23;24.80;;;15.32;;
38567;SDS011;24338;48.280;10.970;2023-01-28T16:29:52;29.88;;;16.20;;
38567;SDS011;24338;48.280;10.970;2023-01-28T16:32:35;27.42;;;16.63;;
38567;SDS011;24338;48.280;10.970;2023-01-28T16:35:11;29.08;;;16.30;;
38567;SDS011;24338;48.280;10.970;2023-01-28T16:37:39;28.08;;;14.95;;
38567;SDS011;24338;48.280;10.970;2023-01-28T16:40:07;24.98;;;13.93;;
38567;SDS011;24338;48.280;10.970;2023-01-28T16:42:36;26.08;;;15.10;;
38567;SDS011;24338;48.280;10.970;2023-01-28T16:45:03;24.10;;;14.98;;
38567;SDS011;24338;48.280;10.970;2023-01-28T16:47:31;24.52;;;14.85;;
38567;SDS011;24338;48.280;10.970;2023-01-28T16:49:58;27.08;;;15.93;;
38567;SDS011;24338;48.280;10.970;2023-01-28T16:52:24;25.85;;;14.00;;
38567;SDS011;24338;48.280;10.970;2023-01-28T16:54:51;24.08;;;14.63;;
38567;SDS011;24338;48.280;10.970;2023-01-28T16:57:19;23.60;;;14.45;;
38567;SDS011;24338;48.280;10.970;2023-01-28T16:59:46;23.52;;;15.05;;
38567;SDS011;24338;48.280;10.970;2023-01-28T17:02:15;27.33;;;15.35;;
38567;SDS011;24338;48.280;10.970;2023-01-28T17:04:43;27.40;;;15.93;;